sensor_id;sensor_type;location;lat;lon;timestamp;temperature;humidity
39655;DHT22;25336;59.944;11.010;2023-05-10T00:00:34;12.20;45.80
39655;DHT22;25336;59.944;11.010;2023-05-10T00:02:59;12.10;45.80
39655;DHT22;25336;59.944;11.010;2023-05-10T00:05:26;12.30;45.90
39655;DHT22;25336;59.944;11.010;2023-05-10T00:07:52;12.10;45.80
39655;DHT22;25336;59.944;11.010;2023-05-10T00:10:17;12.10;45.80
39655;DHT22;25336;59.944;11.010;2023-05-10T00:12:43;12.10;46.00
39655;DHT22;25336;59.944;11.010;2023-05-10T00:15:10;12.00;46.00
39655;DHT22;25336;59.944;11.010;2023-05-10T00:17:36;12.00;46.20
39655;DHT22;25336;59.944;11.010;2023-05-10T00:20:02;12.00;46.20
39655;DHT22;25336;59.944;11.010;2023-05-10T00:22:30;12.00;46.40
39655;DHT22;25336;59.944;11.010;2023-05-10T00:24:56;11.90;46.30
39655;DHT22;25336;59.944;11.010;2023-05-10T00:27:21;11.90;46.40
39655;DHT22;25336;59.944;11.010;2023-05-10T00:29:47;11.90;46.60
39655;DHT22;25336;59.944;11.010;2023-05-10T00:32:12;11.90;46.70
39655;DHT22;25336;59.944;11.010;2023-05-10T00:34:39;11.80;46.70
39655;DHT22;25336;59.944;11.010;2023-05-10T00:37:05;11.80;46.80
39655;DHT22;25336;59.944;11.010;2023-05-10T00:39:31;11.80;46.80
39655;DHT22;25336;59.944;11.010;2023-05-10T00:41:56;11.80;46.90
39655;DHT22;25336;59.944;11.010;2023-05-10T00:44:22;11.70;46.90
39655;DHT22;25336;59.944;11.010;2023-05-10T00:46:48;11.70;47.10
39655;DHT22;25336;59.944;11.010;2023-05-10T00:49:14;11.70;47.20
39655;DHT22;25336;59.944;11.010;2023-05-10T00:51:40;12.40;47.50
39655;DHT22;25336;59.944;11.010;2023-05-10T00:54:09;11.60;47.30
39655;DHT22;25336;59.944;11.010;2023-05-10T00:56:36;11.60;47.60
39655;DHT22;25336;59.944;11.010;2023-05-10T00:59:02;11.60;47.60
39655;DHT22;25336;59.944;11.010;2023-05-10T01:01:28;11.50;47.60
39655;DHT22;25336;59.944;11.010;2023-05-10T01:03:54;11.40;47.70
39655;DHT22;25336;59.944;11.010;2023-05-10T01:06:20;12.20;48.10
39655;DHT22;25336;59.944;11.010;2023-05-10T01:08:46;11.40;48.00
39655;DHT22;25336;59.944;11.010;2023-05-10T01:11:13;11.40;48.20
39655;DHT22;25336;59.944;11.010;2023-05-10T01:13:41;11.30;48.20
39655;DHT22;25336;59.944;11.010;2023-05-10T01:16:07;11.30;48.40
39655;DHT22;25336;59.944;11.010;2023-05-10T01:18:36;11.40;48.40
39655;DHT22;25336;59.944;11.010;2023-05-10T01:21:12;11.20;48.50
39655;DHT22;25336;59.944;11.010;2023-05-10T01:23:59;11.20;48.80
39655;DHT22;25336;59.944;11.010;2023-05-10T01:26:39;11.20;48.90
39655;DHT22;25336;59.944;11.010;2023-05-10T01:32:05;11.10;49.10
39655;DHT22;25336;59.944;11.010;2023-05-10T01:37:20;11.00;49.50
39655;DHT22;25336;59.944;11.010;2023-05-10T01:40:00;10.90;49.30
39655;DHT22;25336;59.944;11.010;2023-05-10T01:42:31;10.90;49.70
39655;DHT22;25336;59.944;11.010;2023-05-10T01:45:33;10.90;49.60
39655;DHT22;25336;59.944;11.010;2023-05-10T01:48:08;10.90;50.20
39655;DHT22;25336;59.944;11.010;2023-05-10T01:50:36;10.80;49.50
39655;DHT22;25336;59.944;11.010;2023-05-10T01:53:06;10.80;49.50
39655;DHT22;25336;59.944;11.010;2023-05-10T01:55:35;10.80;49.60
39655;DHT22;25336;59.944;11.010;2023-05-10T01:58:12;10.70;49.90
39655;DHT22;25336;59.944;11.010;2023-05-10T02:00:42;11.70;50.50
39655;DHT22;25336;59.944;11.010;2023-05-10T02:03:09;10.70;50.00
39655;DHT22;25336;59.944;11.010;2023-05-10T02:05:36;10.70;50.00
39655;DHT22;25336;59.944;11.010;2023-05-10T02:08:05;10.70;50.20
39655;DHT22;25336;59.944;11.010;2023-05-10T02:10:34;10.60;50.30
39655;DHT22;25336;59.944;11.010;2023-05-10T02:13:02;10.60;50.50
39655;DHT22;25336;59.944;11.010;2023-05-10T02:15:28;10.60;50.60
39655;DHT22;25336;59.944;11.010;2023-05-10T02:17:55;10.60;50.60
39655;DHT22;25336;59.944;11.010;2023-05-10T02:20:23;10.60;50.80
39655;DHT22;25336;59.944;11.010;2023-05-10T02:22:51;10.60;50.80
39655;DHT22;25336;59.944;11.010;2023-05-10T02:25:19;11.70;51.50
39655;DHT22;25336;59.944;11.010;2023-05-10T02:27:47;11.30;51.50
39655;DHT22;25336;59.944;11.010;2023-05-10T02:30:14;10.50;51.10
39655;DHT22;25336;59.944;11.010;2023-05-10T02:32:40;10.40;51.70
39655;DHT22;25336;59.944;11.010;2023-05-10T02:35:08;10.40;51.20
39655;DHT22;25336;59.944;11.010;2023-05-10T02:37:36;10.50;51.40
39655;DHT22;25336;59.944;11.010;2023-05-10T02:40:03;10.40;51.50
39655;DHT22;25336;59.944;11.010;2023-05-10T02:42:32;10.30;52.00
39655;DHT22;25336;59.944;11.010;2023-05-10T02:45:01;10.50;52.40
39655;DHT22;25336;59.944;11.010;2023-05-10T02:47:28;10.30;51.90
39655;DHT22;25336;59.944;11.010;2023-05-10T02:49:54;10.20;51.80
39655;DHT22;25336;59.944;11.010;2023-05-10T02:52:25;10.20;52.30
39655;DHT22;25336;59.944;11.010;2023-05-10T02:54:55;10.20;52.50
39655;DHT22;25336;59.944;11.010;2023-05-10T02:57:33;10.10;52.40
39655;DHT22;25336;59.944;11.010;2023-05-10T02:59:59;10.10;53.00
39655;DHT22;25336;59.944;11.010;2023-05-10T03:02:26;10.10;52.60
39655;DHT22;25336;59.944;11.010;2023-05-10T03:04:51;10.00;52.60
39655;DHT22;25336;59.944;11.010;2023-05-10T03:07:17;10.00;52.80
39655;DHT22;25336;59.944;11.010;2023-05-10T03:09:47;10.00;52.80
39655;DHT22;25336;59.944;11.010;2023-05-10T03:17:47;10.00;53.30
39655;DHT22;25336;59.944;11.010;2023-05-10T03:20:25;9.90;53.30
39655;DHT22;25336;59.944;11.010;2023-05-10T03:22:55;10.00;53.50
39655;DHT22;25336;59.944;11.010;2023-05-10T03:25:26;9.90;53.40
39655;DHT22;25336;59.944;11.010;2023-05-10T03:27:52;9.90;53.30
39655;DHT22;25336;59.944;11.010;2023-05-10T03:30:18;9.90;53.40
39655;DHT22;25336;59.944;11.010;2023-05-10T03:32:44;9.90;53.60
39655;DHT22;25336;59.944;11.010;2023-05-10T03:35:11;9.90;53.60
39655;DHT22;25336;59.944;11.010;2023-05-10T03:37:38;9.80;53.70
39655;DHT22;25336;59.944;11.010;2023-05-10T03:40:04;9.90;53.70
39655;DHT22;25336;59.944;11.010;2023-05-10T03:42:30;9.90;54.00
39655;DHT22;25336;59.944;11.010;2023-05-10T03:44:56;9.90;54.10
39655;DHT22;25336;59.944;11.010;2023-05-10T03:47:22;9.90;54.40
39655;DHT22;25336;59.944;11.010;2023-05-10T03:49:47;9.90;54.10
39655;DHT22;25336;59.944;11.010;2023-05-10T03:52:13;9.90;54.30
39655;DHT22;25336;59.944;11.010;2023-05-10T03:54:38;9.90;54.10
39655;DHT22;25336;59.944;11.010;2023-05-10T03:57:04;9.90;54.50
39655;DHT22;25336;59.944;11.010;2023-05-10T03:59:30;10.60;55.10
39655;DHT22;25336;59.944;11.010;2023-05-10T04:01:56;9.90;54.70
39655;DHT22;25336;59.944;11.010;2023-05-10T04:04:21;10.00;54.80
39655;DHT22;25336;59.944;11.010;2023-05-10T04:06:48;10.00;54.90
39655;DHT22;25336;59.944;11.010;2023-05-10T04:09:14;10.00;55.00
39655;DHT22;25336;59.944;11.010;2023-05-10T04:11:39;10.00;54.60
39655;DHT22;25336;59.944;11.010;2023-05-10T04:14:05;10.20;55.00
39655;DHT22;25336;59.944;11.010;2023-05-10T04:16:31;10.10;54.70
39655;DHT22;25336;59.944;11.010;2023-05-10T04:18:56;10.10;54.80
39655;DHT22;25336;59.944;11.010;2023-05-10T04:21:22;10.10;54.90
39655;DHT22;25336;59.944;11.010;2023-05-10T04:23:48;10.10;54.60
39655;DHT22;25336;59.944;11.010;2023-05-10T04:26:14;10.10;54.40
39655;DHT22;25336;59.944;11.010;2023-05-10T04:28:39;10.10;54.50
39655;DHT22;25336;59.944;11.010;2023-05-10T04:31:06;10.30;54.50
39655;DHT22;25336;59.944;11.010;2023-05-10T04:33:33;10.30;54.50
39655;DHT22;25336;59.944;11.010;2023-05-10T04:35:59;10.30;54.40
39655;DHT22;25336;59.944;11.010;2023-05-10T04:38:25;10.40;54.50
39655;DHT22;25336;59.944;11.010;2023-05-10T04:40:51;10.40;54.40
39655;DHT22;25336;59.944;11.010;2023-05-10T04:43:16;10.50;54.60
39655;DHT22;25336;59.944;11.010;2023-05-10T04:45:43;11.00;54.50
39655;DHT22;25336;59.944;11.010;2023-05-10T04:48:08;10.60;54.30
39655;DHT22;25336;59.944;11.010;2023-05-10T04:50:34;11.90;54.80
39655;DHT22;25336;59.944;11.010;2023-05-10T04:53:00;10.70;54.10
39655;DHT22;25336;59.944;11.010;2023-05-10T04:55:26;10.80;54.30
39655;DHT22;25336;59.944;11.010;2023-05-10T04:57:52;10.90;54.00
39655;DHT22;25336;59.944;11.010;2023-05-10T05:00:18;10.90;53.80
39655;DHT22;25336;59.944;11.010;2023-05-10T05:02:44;11.00;53.70
39655;DHT22;25336;59.944;11.010;2023-05-10T05:05:13;11.10;53.80
39655;DHT22;25336;59.944;11.010;2023-05-10T05:07:39;11.10;53.50
39655;DHT22;25336;59.944;11.010;2023-05-10T05:10:06;11.20;53.50
39655;DHT22;25336;59.944;11.010;2023-05-10T05:12:32;11.30;53.40
39655;DHT22;25336;59.944;11.010;2023-05-10T05:14:58;11.70;53.40
39655;DHT22;25336;59.944;11.010;2023-05-10T05:17:23;12.10;53.60
39655;DHT22;25336;59.944;11.010;2023-05-10T05:19:49;11.70;53.10
39655;DHT22;25336;59.944;11.010;2023-05-10T05:22:15;11.60;52.90
39655;DHT22;25336;59.944;11.010;2023-05-10T05:24:40;11.70;53.00
39655;DHT22;25336;59.944;11.010;2023-05-10T05:27:06;11.80;52.80
39655;DHT22;25336;59.944;11.010;2023-05-10T05:29:32;11.90;52.60
39655;DHT22;25336;59.944;11.010;2023-05-10T05:31:57;12.00;53.10
39655;DHT22;25336;59.944;11.010;2023-05-10T05:34:23;12.10;52.30
39655;DHT22;25336;59.944;11.010;2023-05-10T05:36:49;12.20;52.00
39655;DHT22;25336;59.944;11.010;2023-05-10T05:39:15;12.30;51.80
39655;DHT22;25336;59.944;11.010;2023-05-10T05:41:41;12.40;51.50
39655;DHT22;25336;59.944;11.010;2023-05-10T05:44:06;12.40;51.20
39655;DHT22;25336;59.944;11.010;2023-05-10T05:46:32;12.50;51.10
39655;DHT22;25336;59.944;11.010;2023-05-10T05:48:57;12.60;50.80
39655;DHT22;25336;59.944;11.010;2023-05-10T05:51:23;12.50;50.60
39655;DHT22;25336;59.944;11.010;2023-05-10T05:53:48;12.70;50.60
39655;DHT22;25336;59.944;11.010;2023-05-10T05:56:14;12.80;50.20
39655;DHT22;25336;59.944;11.010;2023-05-10T05:58:40;12.90;50.00
39655;DHT22;25336;59.944;11.010;2023-05-10T06:01:05;13.90;50.00
39655;DHT22;25336;59.944;11.010;2023-05-10T06:03:31;13.10;49.30
39655;DHT22;25336;59.944;11.010;2023-05-10T06:05:56;13.20;49.20
39655;DHT22;25336;59.944;11.010;2023-05-10T06:08:22;13.30;49.00
39655;DHT22;25336;59.944;11.010;2023-05-10T06:10:48;13.40;48.90
39655;DHT22;25336;59.944;11.010;2023-05-10T06:13:13;13.50;48.70
39655;DHT22;25336;59.944;11.010;2023-05-10T06:15:39;13.60;48.10
39655;DHT22;25336;59.944;11.010;2023-05-10T06:18:05;13.70;48.10
39655;DHT22;25336;59.944;11.010;2023-05-10T06:20:31;13.80;47.90
39655;DHT22;25336;59.944;11.010;2023-05-10T06:22:57;13.90;47.60
39655;DHT22;25336;59.944;11.010;2023-05-10T06:25:23;14.00;47.00
39655;DHT22;25336;59.944;11.010;2023-05-10T06:27:49;14.10;46.80
39655;DHT22;25336;59.944;11.010;2023-05-10T06:30:15;14.20;46.30
39655;DHT22;25336;59.944;11.010;2023-05-10T06:32:41;14.30;46.50
39655;DHT22;25336;59.944;11.010;2023-05-10T06:35:07;14.40;46.10
39655;DHT22;25336;59.944;11.010;2023-05-10T06:37:33;14.60;45.90
39655;DHT22;25336;59.944;11.010;2023-05-10T06:39:59;14.70;45.80
39655;DHT22;25336;59.944;11.010;2023-05-10T06:42:26;14.80;45.50
39655;DHT22;25336;59.944;11.010;2023-05-10T06:44:52;14.90;45.50
39655;DHT22;25336;59.944;11.010;2023-05-10T06:47:18;15.00;45.30
39655;DHT22;25336;59.944;11.010;2023-05-10T06:49:44;15.10;44.90
39655;DHT22;25336;59.944;11.010;2023-05-10T06:52:09;15.20;44.50
39655;DHT22;25336;59.944;11.010;2023-05-10T06:54:35;15.10;44.30
39655;DHT22;25336;59.944;11.010;2023-05-10T06:57:00;15.30;44.20
39655;DHT22;25336;59.944;11.010;2023-05-10T06:59:28;15.40;44.10
39655;DHT22;25336;59.944;11.010;2023-05-10T07:01:54;15.40;43.80
39655;DHT22;25336;59.944;11.010;2023-05-10T07:04:19;16.00;43.90
39655;DHT22;25336;59.944;11.010;2023-05-10T07:06:45;15.60;43.60
39655;DHT22;25336;59.944;11.010;2023-05-10T07:09:11;16.40;43.60
39655;DHT22;25336;59.944;11.010;2023-05-10T07:11:38;15.70;43.00
39655;DHT22;25336;59.944;11.010;2023-05-10T07:14:04;15.80;43.20
39655;DHT22;25336;59.944;11.010;2023-05-10T07:16:30;15.90;42.90
39655;DHT22;25336;59.944;11.010;2023-05-10T07:18:55;15.90;42.80
39655;DHT22;25336;59.944;11.010;2023-05-10T07:21:21;16.00;43.00
39655;DHT22;25336;59.944;11.010;2023-05-10T07:23:49;16.40;42.90
39655;DHT22;25336;59.944;11.010;2023-05-10T07:26:15;16.10;42.90
39655;DHT22;25336;59.944;11.010;2023-05-10T07:28:41;16.20;43.00
39655;DHT22;25336;59.944;11.010;2023-05-10T07:31:06;16.30;42.40
39655;DHT22;25336;59.944;11.010;2023-05-10T07:33:32;16.40;42.40
39655;DHT22;25336;59.944;11.010;2023-05-10T07:35:58;16.50;42.00
39655;DHT22;25336;59.944;11.010;2023-05-10T07:38:23;15.80;41.60
39655;DHT22;25336;59.944;11.010;2023-05-10T07:40:49;16.60;41.90
39655;DHT22;25336;59.944;11.010;2023-05-10T07:43:14;16.60;41.60
39655;DHT22;25336;59.944;11.010;2023-05-10T07:45:40;16.60;41.60
39655;DHT22;25336;59.944;11.010;2023-05-10T07:48:05;16.70;41.40
39655;DHT22;25336;59.944;11.010;2023-05-10T07:50:31;16.80;41.40
39655;DHT22;25336;59.944;11.010;2023-05-10T07:52:57;16.80;41.50
39655;DHT22;25336;59.944;11.010;2023-05-10T07:55:22;16.90;41.00
39655;DHT22;25336;59.944;11.010;2023-05-10T07:57:48;17.00;41.20
39655;DHT22;25336;59.944;11.010;2023-05-10T08:00:17;17.00;41.20
39655;DHT22;25336;59.944;11.010;2023-05-10T08:02:43;17.10;40.90
39655;DHT22;25336;59.944;11.010;2023-05-10T08:05:09;17.20;41.30
39655;DHT22;25336;59.944;11.010;2023-05-10T08:07:35;17.30;41.20
39655;DHT22;25336;59.944;11.010;2023-05-10T08:10:01;17.40;40.90
39655;DHT22;25336;59.944;11.010;2023-05-10T08:12:27;17.40;40.70
39655;DHT22;25336;59.944;11.010;2023-05-10T08:14:52;17.50;40.90
39655;DHT22;25336;59.944;11.010;2023-05-10T08:17:18;17.60;41.00
39655;DHT22;25336;59.944;11.010;2023-05-10T08:19:44;17.70;41.00
39655;DHT22;25336;59.944;11.010;2023-05-10T08:22:09;17.80;40.90
39655;DHT22;25336;59.944;11.010;2023-05-10T08:24:35;17.90;40.90
39655;DHT22;25336;59.944;11.010;2023-05-10T08:27:10;18.70;40.90
39655;DHT22;25336;59.944;11.010;2023-05-10T08:29:35;18.10;40.60
39655;DHT22;25336;59.944;11.010;2023-05-10T08:32:01;18.20;40.40
39655;DHT22;25336;59.944;11.010;2023-05-10T08:34:27;18.40;40.10
39655;DHT22;25336;59.944;11.010;2023-05-10T08:36:53;18.40;40.20
39655;DHT22;25336;59.944;11.010;2023-05-10T08:39:18;18.60;39.50
39655;DHT22;25336;59.944;11.010;2023-05-10T08:41:45;18.70;39.20
39655;DHT22;25336;59.944;11.010;2023-05-10T08:44:12;18.70;39.20
39655;DHT22;25336;59.944;11.010;2023-05-10T08:46:41;18.80;38.80
39655;DHT22;25336;59.944;11.010;2023-05-10T08:49:13;18.80;38.80
39655;DHT22;25336;59.944;11.010;2023-05-10T08:51:45;18.90;38.90
39655;DHT22;25336;59.944;11.010;2023-05-10T08:54:12;19.70;39.10
39655;DHT22;25336;59.944;11.010;2023-05-10T08:56:39;19.00;38.30
39655;DHT22;25336;59.944;11.010;2023-05-10T08:59:04;19.00;38.20
39655;DHT22;25336;59.944;11.010;2023-05-10T09:01:31;19.50;38.50
39655;DHT22;25336;59.944;11.010;2023-05-10T09:03:58;19.10;38.30
39655;DHT22;25336;59.944;11.010;2023-05-10T09:06:24;19.20;38.50
39655;DHT22;25336;59.944;11.010;2023-05-10T09:08:49;19.20;38.20
39655;DHT22;25336;59.944;11.010;2023-05-10T09:11:16;19.30;37.80
39655;DHT22;25336;59.944;11.010;2023-05-10T09:13:42;19.30;37.70
39655;DHT22;25336;59.944;11.010;2023-05-10T09:16:09;19.40;38.00
39655;DHT22;25336;59.944;11.010;2023-05-10T09:18:35;19.50;38.10
39655;DHT22;25336;59.944;11.010;2023-05-10T09:21:00;19.50;37.80
39655;DHT22;25336;59.944;11.010;2023-05-10T09:23:26;20.30;38.10
39655;DHT22;25336;59.944;11.010;2023-05-10T09:26:06;19.70;37.60
39655;DHT22;25336;59.944;11.010;2023-05-10T09:28:51;19.80;37.00
39655;DHT22;25336;59.944;11.010;2023-05-10T09:31:18;19.90;36.90
39655;DHT22;25336;59.944;11.010;2023-05-10T09:33:44;19.90;36.70
39655;DHT22;25336;59.944;11.010;2023-05-10T09:36:11;20.00;37.20
39655;DHT22;25336;59.944;11.010;2023-05-10T09:38:49;20.00;37.20
39655;DHT22;25336;59.944;11.010;2023-05-10T09:41:22;20.10;36.20
39655;DHT22;25336;59.944;11.010;2023-05-10T09:43:48;20.20;35.80
39655;DHT22;25336;59.944;11.010;2023-05-10T09:46:15;20.20;36.20
39655;DHT22;25336;59.944;11.010;2023-05-10T09:48:46;20.30;36.20
39655;DHT22;25336;59.944;11.010;2023-05-10T09:51:24;21.00;36.20
39655;DHT22;25336;59.944;11.010;2023-05-10T09:54:14;20.40;35.50
39655;DHT22;25336;59.944;11.010;2023-05-10T09:56:40;20.50;35.10
39655;DHT22;25336;59.944;11.010;2023-05-10T09:59:11;20.50;35.90
39655;DHT22;25336;59.944;11.010;2023-05-10T10:01:37;20.50;35.10
39655;DHT22;25336;59.944;11.010;2023-05-10T10:04:08;20.60;34.90
39655;DHT22;25336;59.944;11.010;2023-05-10T10:06:38;20.60;35.10
39655;DHT22;25336;59.944;11.010;2023-05-10T10:09:05;20.70;34.50
39655;DHT22;25336;59.944;11.010;2023-05-10T10:11:34;20.70;34.90
39655;DHT22;25336;59.944;11.010;2023-05-10T10:14:00;20.80;35.40
39655;DHT22;25336;59.944;11.010;2023-05-10T10:16:28;21.60;35.20
39655;DHT22;25336;59.944;11.010;2023-05-10T10:18:55;20.90;35.40
39655;DHT22;25336;59.944;11.010;2023-05-10T10:21:22;21.00;35.30
39655;DHT22;25336;59.944;11.010;2023-05-10T10:23:48;21.10;34.90
39655;DHT22;25336;59.944;11.010;2023-05-10T10:26:14;21.30;34.90
39655;DHT22;25336;59.944;11.010;2023-05-10T10:28:51;21.40;34.30
39655;DHT22;25336;59.944;11.010;2023-05-10T10:31:32;22.00;33.70
39655;DHT22;25336;59.944;11.010;2023-05-10T10:34:05;21.60;34.10
39655;DHT22;25336;59.944;11.010;2023-05-10T10:36:32;21.70;33.20
39655;DHT22;25336;59.944;11.010;2023-05-10T10:39:00;21.80;33.00
39655;DHT22;25336;59.944;11.010;2023-05-10T10:52:28;22.20;32.80
39655;DHT22;25336;59.944;11.010;2023-05-10T10:55:13;22.40;32.00
39655;DHT22;25336;59.944;11.010;2023-05-10T11:03:10;22.50;30.70
39655;DHT22;25336;59.944;11.010;2023-05-10T11:05:49;22.60;30.30
39655;DHT22;25336;59.944;11.010;2023-05-10T11:08:41;22.60;31.20
39655;DHT22;25336;59.944;11.010;2023-05-10T11:11:14;22.60;30.10
39655;DHT22;25336;59.944;11.010;2023-05-10T11:13:45;22.70;31.00
39655;DHT22;25336;59.944;11.010;2023-05-10T11:16:11;22.80;30.40
39655;DHT22;25336;59.944;11.010;2023-05-10T11:18:37;22.90;30.70
39655;DHT22;25336;59.944;11.010;2023-05-10T11:21:03;22.90;30.00
39655;DHT22;25336;59.944;11.010;2023-05-10T11:23:32;22.90;30.10
39655;DHT22;25336;59.944;11.010;2023-05-10T11:25:59;23.00;30.10
39655;DHT22;25336;59.944;11.010;2023-05-10T11:28:26;23.00;29.90
39655;DHT22;25336;59.944;11.010;2023-05-10T11:30:53;23.10;30.00
39655;DHT22;25336;59.944;11.010;2023-05-10T11:33:20;23.80;30.30
39655;DHT22;25336;59.944;11.010;2023-05-10T11:35:46;23.10;30.00
39655;DHT22;25336;59.944;11.010;2023-05-10T11:38:13;23.20;29.80
39655;DHT22;25336;59.944;11.010;2023-05-10T11:40:39;23.20;29.70
39655;DHT22;25336;59.944;11.010;2023-05-10T11:43:05;23.20;29.70
39655;DHT22;25336;59.944;11.010;2023-05-10T11:45:35;23.30;29.60
39655;DHT22;25336;59.944;11.010;2023-05-10T11:48:01;23.20;29.30
39655;DHT22;25336;59.944;11.010;2023-05-10T11:50:28;23.30;29.50
39655;DHT22;25336;59.944;11.010;2023-05-10T11:52:54;23.20;30.00
39655;DHT22;25336;59.944;11.010;2023-05-10T11:55:20;23.30;29.60
39655;DHT22;25336;59.944;11.010;2023-05-10T11:57:46;23.30;29.40
39655;DHT22;25336;59.944;11.010;2023-05-10T12:00:13;23.60;29.50
39655;DHT22;25336;59.944;11.010;2023-05-10T12:02:39;23.30;29.80
39655;DHT22;25336;59.944;11.010;2023-05-10T12:05:06;23.40;29.60
39655;DHT22;25336;59.944;11.010;2023-05-10T12:07:32;23.40;29.60
39655;DHT22;25336;59.944;11.010;2023-05-10T12:12:37;23.40;29.20
39655;DHT22;25336;59.944;11.010;2023-05-10T12:15:04;23.40;29.20
39655;DHT22;25336;59.944;11.010;2023-05-10T12:17:30;23.10;29.50
39655;DHT22;25336;59.944;11.010;2023-05-10T12:20:12;23.50;29.20
39655;DHT22;25336;59.944;11.010;2023-05-10T12:22:38;23.60;29.50
39655;DHT22;25336;59.944;11.010;2023-05-10T12:25:04;23.20;29.10
39655;DHT22;25336;59.944;11.010;2023-05-10T12:27:32;23.70;28.90
39655;DHT22;25336;59.944;11.010;2023-05-10T12:29:59;23.70;28.50
39655;DHT22;25336;59.944;11.010;2023-05-10T12:32:40;23.80;28.60
39655;DHT22;25336;59.944;11.010;2023-05-10T12:35:07;24.60;28.90
39655;DHT22;25336;59.944;11.010;2023-05-10T12:37:33;23.90;28.60
39655;DHT22;25336;59.944;11.010;2023-05-10T12:40:07;23.90;28.20
39655;DHT22;25336;59.944;11.010;2023-05-10T12:42:34;23.90;28.30
39655;DHT22;25336;59.944;11.010;2023-05-10T12:45:01;24.70;28.70
39655;DHT22;25336;59.944;11.010;2023-05-10T12:47:27;23.90;28.40
39655;DHT22;25336;59.944;11.010;2023-05-10T12:49:52;23.90;28.20
39655;DHT22;25336;59.944;11.010;2023-05-10T12:52:18;23.80;28.30
39655;DHT22;25336;59.944;11.010;2023-05-10T12:54:43;23.80;28.30
39655;DHT22;25336;59.944;11.010;2023-05-10T12:57:09;24.10;28.50
39655;DHT22;25336;59.944;11.010;2023-05-10T12:59:35;23.70;28.10
39655;DHT22;25336;59.944;11.010;2023-05-10T13:02:01;23.60;28.20
39655;DHT22;25336;59.944;11.010;2023-05-10T13:04:26;23.50;28.50
39655;DHT22;25336;59.944;11.010;2023-05-10T13:06:52;23.40;28.40
39655;DHT22;25336;59.944;11.010;2023-05-10T13:09:18;23.40;28.50
39655;DHT22;25336;59.944;11.010;2023-05-10T13:11:44;23.30;28.30
39655;DHT22;25336;59.944;11.010;2023-05-10T13:14:10;23.30;29.40
39655;DHT22;25336;59.944;11.010;2023-05-10T13:16:36;23.20;29.00
39655;DHT22;25336;59.944;11.010;2023-05-10T13:19:01;23.20;29.00
39655;DHT22;25336;59.944;11.010;2023-05-10T13:21:28;23.20;28.80
39655;DHT22;25336;59.944;11.010;2023-05-10T13:23:53;23.20;28.90
39655;DHT22;25336;59.944;11.010;2023-05-10T13:26:19;23.20;29.00
39655;DHT22;25336;59.944;11.010;2023-05-10T13:28:45;23.20;28.90
39655;DHT22;25336;59.944;11.010;2023-05-10T13:31:11;23.20;29.00
39655;DHT22;25336;59.944;11.010;2023-05-10T13:33:36;23.20;29.60
39655;DHT22;25336;59.944;11.010;2023-05-10T13:36:02;23.20;29.30
39655;DHT22;25336;59.944;11.010;2023-05-10T13:38:28;23.20;29.30
39655;DHT22;25336;59.944;11.010;2023-05-10T13:40:53;23.30;29.30
39655;DHT22;25336;59.944;11.010;2023-05-10T13:43:19;23.30;29.20
39655;DHT22;25336;59.944;11.010;2023-05-10T13:45:45;23.40;29.30
39655;DHT22;25336;59.944;11.010;2023-05-10T13:48:10;23.50;29.00
39655;DHT22;25336;59.944;11.010;2023-05-10T13:50:36;23.50;28.90
39655;DHT22;25336;59.944;11.010;2023-05-10T13:53:02;23.60;28.90
39655;DHT22;25336;59.944;11.010;2023-05-10T13:55:27;23.70;28.40
39655;DHT22;25336;59.944;11.010;2023-05-10T13:57:54;23.70;28.60
39655;DHT22;25336;59.944;11.010;2023-05-10T14:00:19;23.80;28.40
39655;DHT22;25336;59.944;11.010;2023-05-10T14:02:45;23.80;28.40
39655;DHT22;25336;59.944;11.010;2023-05-10T14:05:10;23.80;28.40
39655;DHT22;25336;59.944;11.010;2023-05-10T14:07:36;23.80;28.60
39655;DHT22;25336;59.944;11.010;2023-05-10T14:10:02;23.80;28.40
39655;DHT22;25336;59.944;11.010;2023-05-10T14:12:28;23.80;28.50
39655;DHT22;25336;59.944;11.010;2023-05-10T14:14:53;23.90;28.70
39655;DHT22;25336;59.944;11.010;2023-05-10T14:17:19;24.50;28.60
39655;DHT22;25336;59.944;11.010;2023-05-10T14:19:44;24.00;28.50
39655;DHT22;25336;59.944;11.010;2023-05-10T14:22:10;24.10;28.10
39655;DHT22;25336;59.944;11.010;2023-05-10T14:24:35;24.20;28.40
39655;DHT22;25336;59.944;11.010;2023-05-10T14:27:01;24.30;27.50
39655;DHT22;25336;59.944;11.010;2023-05-10T14:29:27;24.20;27.70
39655;DHT22;25336;59.944;11.010;2023-05-10T14:31:52;24.20;27.50
39655;DHT22;25336;59.944;11.010;2023-05-10T14:34:18;24.90;27.70
39655;DHT22;25336;59.944;11.010;2023-05-10T14:36:44;24.20;27.60
39655;DHT22;25336;59.944;11.010;2023-05-10T14:39:09;24.20;27.50
39655;DHT22;25336;59.944;11.010;2023-05-10T14:41:38;24.20;27.20
39655;DHT22;25336;59.944;11.010;2023-05-10T14:44:06;24.10;27.30
39655;DHT22;25336;59.944;11.010;2023-05-10T14:46:31;24.80;27.50
39655;DHT22;25336;59.944;11.010;2023-05-10T14:48:57;24.00;27.30
39655;DHT22;25336;59.944;11.010;2023-05-10T14:51:22;24.00;27.40
39655;DHT22;25336;59.944;11.010;2023-05-10T14:53:48;23.90;27.50
39655;DHT22;25336;59.944;11.010;2023-05-10T14:56:17;23.90;27.90
39655;DHT22;25336;59.944;11.010;2023-05-10T14:58:42;23.80;27.60
39655;DHT22;25336;59.944;11.010;2023-05-10T15:01:08;23.80;27.80
39655;DHT22;25336;59.944;11.010;2023-05-10T15:03:33;23.80;28.00
39655;DHT22;25336;59.944;11.010;2023-05-10T15:05:59;23.80;27.90
39655;DHT22;25336;59.944;11.010;2023-05-10T15:08:25;23.80;28.00
39655;DHT22;25336;59.944;11.010;2023-05-10T15:10:51;23.70;28.00
39655;DHT22;25336;59.944;11.010;2023-05-10T15:13:17;23.70;28.10
39655;DHT22;25336;59.944;11.010;2023-05-10T15:15:42;23.60;27.80
39655;DHT22;25336;59.944;11.010;2023-05-10T15:18:11;23.60;27.80
39655;DHT22;25336;59.944;11.010;2023-05-10T15:20:36;23.80;28.20
39655;DHT22;25336;59.944;11.010;2023-05-10T15:23:02;23.50;28.60
39655;DHT22;25336;59.944;11.010;2023-05-10T15:25:28;23.90;28.80
39655;DHT22;25336;59.944;11.010;2023-05-10T15:27:54;23.50;28.60
39655;DHT22;25336;59.944;11.010;2023-05-10T15:30:20;23.50;28.50
39655;DHT22;25336;59.944;11.010;2023-05-10T15:32:45;23.60;28.70
39655;DHT22;25336;59.944;11.010;2023-05-10T15:35:11;23.70;28.80
39655;DHT22;25336;59.944;11.010;2023-05-10T15:37:37;23.90;28.60
39655;DHT22;25336;59.944;11.010;2023-05-10T15:40:04;24.00;28.50
39655;DHT22;25336;59.944;11.010;2023-05-10T15:42:30;24.10;28.10
39655;DHT22;25336;59.944;11.010;2023-05-10T15:44:57;24.20;28.10
39655;DHT22;25336;59.944;11.010;2023-05-10T15:47:23;24.30;28.10